createdAt,value
2022-08-27T00:00:26.419Z,77
2022-08-27T00:02:58.899Z,77
2022-08-27T00:05:32.362Z,77
2022-08-27T00:08:05.129Z,78
2022-08-27T00:10:38.356Z,78
2022-08-27T00:13:11.953Z,78
2022-08-27T00:15:45.393Z,78
2022-08-27T00:18:23.683Z,78
2022-08-27T00:20:54.929Z,78
2022-08-27T00:23:28.215Z,78
2022-08-27T00:26:01.056Z,78
2022-08-27T00:28:32.211Z,78
2022-08-27T00:31:05.550Z,78
2022-08-27T00:33:38.617Z,78
2022-08-27T00:36:11.951Z,78
2022-08-27T00:38:45.261Z,78
2022-08-27T00:41:19.061Z,78
2022-08-27T00:43:51.455Z,78
2022-08-27T00:46:24.575Z,78
2022-08-27T00:48:57.827Z,79
2022-08-27T00:51:31.305Z,79
2022-08-27T00:54:04.649Z,79
2022-08-27T00:56:41.680Z,79
2022-08-27T00:59:14.628Z,79
2022-08-27T01:01:47.579Z,79
2022-08-27T01:04:20.287Z,79
2022-08-27T01:06:53.189Z,79
2022-08-27T01:09:26.065Z,79
2022-08-27T01:11:58.818Z,79
2022-08-27T01:14:32.399Z,79
2022-08-27T01:17:05.285Z,79
2022-08-27T01:19:38.921Z,79
2022-08-27T01:22:24.392Z,79
2022-08-27T01:24:55.274Z,79
2022-08-27T01:27:28.641Z,79
2022-08-27T01:30:01.978Z,79
2022-08-27T01:32:35.268Z,79
2022-08-27T01:35:08.442Z,79
2022-08-27T01:37:44.302Z,79
2022-08-27T01:40:19.423Z,79
2022-08-27T01:42:52.600Z,79
2022-08-27T01:45:26.020Z,80
2022-08-27T01:47:58.940Z,80
2022-08-27T01:50:31.715Z,79
2022-08-27T01:53:04.631Z,80
2022-08-27T01:55:48.828Z,80
2022-08-27T01:58:20.332Z,80
2022-08-27T02:00:58.195Z,80
2022-08-27T02:03:30.052Z,80
2022-08-27T02:06:01.318Z,80
2022-08-27T02:08:33.903Z,80
2022-08-27T02:11:07.532Z,80
2022-08-27T02:13:40.158Z,80
2022-08-27T02:16:13.257Z,80
2022-08-27T02:18:47.516Z,80
2022-08-27T02:21:20.518Z,80
2022-08-27T02:23:53.980Z,80
2022-08-27T02:26:26.384Z,80
2022-08-27T02:28:59.708Z,80
2022-08-27T02:31:33.525Z,80
2022-08-27T02:34:06.674Z,80
2022-08-27T02:36:39.378Z,80
2022-08-27T02:39:12.578Z,80
2022-08-27T02:41:45.373Z,80
2022-08-27T02:44:18.614Z,80
2022-08-27T02:46:55.834Z,80
2022-08-27T02:49:27.727Z,80
2022-08-27T02:52:01.289Z,80
2022-08-27T02:54:34.085Z,80
2022-08-27T02:57:06.954Z,80
2022-08-27T02:59:39.738Z,80
2022-08-27T03:02:13.778Z,80
2022-08-27T03:04:46.242Z,80
2022-08-27T03:07:20.214Z,80
2022-08-27T03:09:50.856Z,81
2022-08-27T03:12:25.876Z,81
2022-08-27T03:14:58.474Z,81
2022-08-27T03:17:31.200Z,81
2022-08-27T03:20:03.971Z,81
2022-08-27T03:22:36.844Z,82
2022-08-27T03:25:09.798Z,82
2022-08-27T03:27:42.262Z,82
2022-08-27T03:30:14.660Z,81
2022-08-27T03:32:47.939Z,81
2022-08-27T03:35:20.459Z,81
2022-08-27T03:37:53.222Z,81
2022-08-27T03:40:26.824Z,81
2022-08-27T03:43:00.502Z,81
2022-08-27T03:46:03.454Z,82
2022-08-27T03:48:34.112Z,82
2022-08-27T03:51:06.929Z,82
2022-08-27T03:53:39.760Z,82
2022-08-27T03:56:12.806Z,82
2022-08-27T03:58:45.668Z,82
2022-08-27T04:01:18.871Z,82
2022-08-27T04:03:51.666Z,82
2022-08-27T04:06:24.630Z,82
2022-08-27T04:08:57.664Z,82
2022-08-27T04:11:30.958Z,82
2022-08-27T04:14:27.781Z,82
2022-08-27T04:16:58.974Z,82
2022-08-27T04:19:32.596Z,82
2022-08-27T04:22:05.796Z,82
2022-08-27T04:24:38.312Z,82
2022-08-27T04:27:11.835Z,82
2022-08-27T04:29:53.150Z,81
2022-08-27T04:32:34.928Z,81
2022-08-27T04:35:06.770Z,81
2022-08-27T04:37:39.530Z,81
2022-08-27T04:40:13.105Z,81
2022-08-27T20:05:20.643Z,69
2022-08-27T20:07:48.462Z,67
2022-08-27T20:10:22.267Z,68
2022-08-27T20:12:52.506Z,69
2022-08-27T20:15:25.476Z,69
2022-08-27T20:18:00.065Z,70
2022-08-27T20:20:30.323Z,70
2022-08-27T20:23:03.227Z,70
2022-08-27T20:25:35.468Z,70
2022-08-27T20:28:42.050Z,70
2022-08-27T20:31:13.928Z,70
2022-08-27T20:33:46.767Z,70
2022-08-27T20:36:17.470Z,70
2022-08-27T20:38:49.981Z,70
2022-08-27T20:41:21.026Z,70
2022-08-27T20:43:52.248Z,70
2022-08-27T20:46:24.977Z,71
2022-08-27T20:48:57.862Z,70
2022-08-27T20:52:11.868Z,70
2022-08-27T20:54:40.861Z,71
2022-08-27T20:57:13.439Z,71
2022-08-27T20:59:45.813Z,71
2022-08-27T21:02:19.534Z,71
2022-08-27T21:04:52.021Z,71
2022-08-27T21:07:24.963Z,71
2022-08-27T21:09:58.860Z,71
2022-08-27T21:12:31.812Z,72
2022-08-27T21:15:04.963Z,72
2022-08-27T21:17:37.765Z,71
2022-08-27T21:20:10.458Z,72
2022-08-27T21:22:43.328Z,72
2022-08-27T21:25:16.147Z,72
2022-08-27T21:27:48.692Z,73
2022-08-27T21:30:21.792Z,72
2022-08-27T21:32:54.231Z,73
2022-08-27T21:35:27.619Z,72
2022-08-27T21:38:00.665Z,72
2022-08-27T21:40:33.689Z,72
2022-08-27T21:43:06.486Z,72
2022-08-27T21:45:39.867Z,72
2022-08-27T21:48:13.911Z,71
2022-08-27T21:50:44.667Z,71
2022-08-27T21:53:17.562Z,71
2022-08-27T21:55:48.175Z,70
2022-08-27T21:58:27.618Z,71
2022-08-27T22:00:59.201Z,71
2022-08-27T22:03:31.908Z,72
2022-08-27T22:06:05.142Z,71
2022-08-27T22:08:39.066Z,72
2022-08-27T22:11:11.618Z,72
2022-08-27T22:13:43.378Z,72
2022-08-27T22:16:16.094Z,72
2022-08-27T22:18:55.733Z,71
2022-08-27T22:21:26.489Z,72
2022-08-27T22:23:58.703Z,72
2022-08-27T22:26:31.686Z,72
2022-08-27T22:29:05.093Z,72
2022-08-27T22:31:37.609Z,72
2022-08-27T22:34:16.449Z,72
2022-08-27T22:36:48.824Z,73
2022-08-27T22:39:25.996Z,73
2022-08-27T22:41:57.801Z,73
2022-08-27T22:44:32.037Z,73
2022-08-27T22:47:05.354Z,73
2022-08-27T22:49:37.945Z,74
2022-08-27T22:52:11.014Z,73
2022-08-27T22:54:43.998Z,73
2022-08-27T22:57:16.997Z,73
2022-08-27T22:59:49.806Z,73
2022-08-27T23:02:22.670Z,73
2022-08-27T23:04:57.943Z,74
2022-08-27T23:07:30.500Z,74
2022-08-27T23:10:02.799Z,73
2022-08-27T23:12:46.548Z,73
2022-08-27T23:15:17.013Z,72
2022-08-27T23:17:49.810Z,73
2022-08-27T23:20:21.949Z,73
2022-08-27T23:22:55.143Z,73
2022-08-27T23:25:28.418Z,73
2022-08-27T23:28:15.699Z,73
2022-08-27T23:30:47.703Z,73
2022-08-27T23:33:20.656Z,73
2022-08-27T23:35:53.061Z,73
2022-08-27T23:38:25.294Z,73
2022-08-27T23:41:00.409Z,73
2022-08-27T23:43:33.131Z,73
2022-08-27T23:46:06.364Z,73
2022-08-27T23:48:37.474Z,74
2022-08-27T23:51:10.394Z,74
2022-08-27T23:53:43.366Z,74
2022-08-27T23:56:16.690Z,74
2022-08-27T23:58:50.069Z,74
